x

Cape Elizabeth- 45nm Nw Of Aberdeen, Wa (46041) Wave Buoy

7:50 - Sun 7th Feb 2016 All times are PST. -8 hours from GMT.

  • Sig Wave height 7.5ft
  • Swell Direction
  • Peak Period 13s
  • Average Period 6s
  • Wind
    20mph, 27mph gusts
  • Sea Temp 52°f
  • Air Temp 49°f
  • Sea Pressure 1030.9mb
  • Cape Elizabeth- 45nm Nw Of Aberdeen, Wa
  • Cape Elizabeth- 45nm Nw Of Aberdeen, Wa

More Historic Weather Station data

Upgrade to MSW Pro to gain access to the past 30 days of data for over 8000 Wavebouys and Weather Stations around the globe.

Join Pro

Comparision Forecast

View Surf forecast
   
dim. 02/07 7:50 7.5ft 13s 6s 20 27 mph 1030.9mb 52f 49f
6:50 7.5ft 13s 7s 27 31 mph 1030.5mb 52f 48f
5:50 7ft 14s 7s 22 29 mph 1031.2mb 52f 48f
4:50 8ft 14s 7s 22 29 mph 1030.5mb 52f 48f
3:50 8ft 14s 8s 22 27 mph 1030.4mb 52f 47f
2:50 8ft 13s 8s 18 22 mph 1031mb 52f 47f
1:50 9ft 11s 8s 16 20 mph 1030.8mb 52f 47f
12:50 9ft 12s 9s 16 18 mph 1030.9mb 52f 47f
sam. 02/06 11:50 9.5ft 12s 9s 13 18 mph 1031.1mb 52f 48f
10:50 9.5ft 12s 9s 16 20 mph 1030.8mb 52f 48f
9:50 9ft 12s 8s 16 20 mph 1030.5mb 52f 48f
8:50 10ft 11s 9s 13 16 mph 1030.7mb 52f 49f
7:50 9.5ft 12s 8s 13 16 mph 1030.5mb 52f 49f
6:50 9.5ft 13s 8s 9 11 mph 1030.7mb 52f 49f
5:50 11ft 12s 9s 9 13 mph 1030.6mb 52f 49f
4:50 10.5ft 12s 8s 11 13 mph 1030.5mb 52f 49f
3:50 9.5ft 13s 8s 11 16 mph 1030.3mb 52f 49f
2:50 10ft 13s 8s 13 16 mph 1030.1mb 52f 49f
1:50 11ft 13s 8s 11 16 mph 1030.4mb 52f 49f
12:50 10.5ft 11s 8s 4 7 mph 1030.8mb 52f 50f
11:50 11.5ft 14s 9s 2 4 mph 1031mb 52f 49f
10:50 11ft 11s 8s 2 4 mph 1030.8mb 52f 49f
9:50 12ft 11s 8s 7 9 mph 1030.5mb 51f 49f
8:50 12.5ft 11s 8s 9 13 mph 1030mb 51f 49f
7:50 13.5ft 12s 8s 13 20 mph 1029.7mb 51f 48f
6:50 14.5ft 13s 8s 16 22 mph 1029.3mb 51f 49f
5:50 13ft 11s 8s 18 22 mph 1028.7mb 51f 49f
4:50 14.5ft 12s 8s 13 18 mph 1028.1mb 51f 48f
3:50 14ft 10s 8s 20 29 mph 1027.3mb 51f 48f
2:50 14ft 13s 8s 18 20 mph 1026.4mb 51f 49f
1:50 15ft 13s 9s 18 22 mph 1025.2mb 51f 48f
12:50 15.5ft 14s 9s 22 29 mph 1024.7mb 52f 47f
ven. 02/05 11:50 15ft 13s 8s 16 20 mph 1024.1mb 52f 49f
10:50 13.5ft 12s 8s 18 22 mph 1023.3mb 52f 50f
9:50 15.5ft 14s 8s 22 27 mph 1022mb 52f 49f
8:50 16.5ft 11s 8s 20 27 mph 1021.4mb 52f 47f
7:50 17.5ft 12s 8s 25 34 mph 1020.2mb 52f 49f
6:50 18.5ft 12s 8s 36 45 mph 1018.1mb 52f 48f
5:50 18.5ft 11s 8s 34 43 mph 1015.4mb 52f 51f
4:50 19.5ft 14s 9s 29 38 mph 1014.2mb 52f 52f
3:50 20ft 12s 9s 31 38 mph 1013.4mb 52f 52f
2:50 19ft 15s 8s 34 40 mph 1013.6mb 52f 52f
1:50 18.5ft 14s 8s 38 47 mph 1012.7mb 52f 52f
12:50 17.5ft 14s 8s 36 45 mph 1013.8mb 52f 51f
11:50 16.5ft 14s 8s 31 43 mph 1015mb 52f 51f
10:50 17.5ft 14s 9s 29 38 mph 1016.7mb 52f 52f
9:50 16.5ft 15s 9s 29 34 mph 1017.4mb 52f 52f
8:50 15ft 13s 8s 29 36 mph 1017.3mb 52f 51f
7:50 15ft 15s 8s 29 36 mph 1018.1mb 52f 52f
6:50 14.5ft 15s 8s 27 34 mph 1019.1mb 52f 52f
5:50 13ft 15s 8s 27 34 mph 1019.7mb 52f 52f
4:50 12.5ft 15s 8s 25 29 mph 1021.1mb 52f 52f
3:50 11.5ft 16s 7s 25 29 mph 1021.5mb 52f 52f
2:50 12ft 16s 8s 27 34 mph 1021.8mb 52f 51f
1:50 12.5ft 16s 8s 22 29 mph 1022.5mb 52f 51f
12:50 13ft 16s 8s 25 31 mph 1023.3mb 52f 51f
jeu. 02/04 11:50 13ft 16s 8s 27 31 mph 1023.5mb 52f 50f
10:50 12.5ft 16s 7s 22 29 mph 1024.2mb 52f 50f
9:50 13ft 16s 8s 27 34 mph 1024mb 52f 51f
8:50 13.5ft 15s 8s 25 31 mph 1024.4mb 52f 52f
7:50 13ft 16s 8s 27 31 mph 1024.5mb 52f 52f
6:50 13ft 16s 8s 25 29 mph 1025.3mb 52f 52f
5:50 12ft 15s 9s 22 27 mph 1025.7mb 52f 52f
4:50 13ft 16s 9s 16 20 mph 1026.5mb 52f 52f
3:50 13ft 16s 9s 22 27 mph 1025.2mb 52f 50f
2:50 14ft 16s 10s 20 25 mph 1026mb 52f 49f
1:50 12.5ft 15s 9s 18 22 mph 1027mb 52f 48f
12:50 14ft 17s 10s 20 25 mph 1026.7mb 52f 47f
11:50 13.5ft 17s 10s 22 27 mph 1026.3mb 52f 48f
10:50 14ft 17s 10s 18 22 mph 1025.8mb 52f 48f
9:50 14ft 19s 10s 13 20 mph 1025.6mb 51f 48f
8:50 15ft 19s 10s 4 9 mph 1025.4mb 52f 47f
7:50 15.5ft 17s 10s 7 9 mph 1024.5mb 52f 48f
6:50 15.5ft 17s 10s 11 16 mph 1023.9mb 52f 49f
5:50 16ft 19s 10s 9 16 mph 1023.3mb 52f 50f
4:50 16.5ft 19s 10s 13 16 mph 1023mb 52f 50f
3:50 15.5ft 17s 10s 13 18 mph 1022.3mb 52f 50f
2:50 17ft 19s 10s 13 20 mph 1021.2mb 52f 50f
1:50 15.5ft 19s 10s 18 20 mph 1019.9mb 52f 50f
12:50 15ft 17s 9s 20 25 mph 1019.1mb 52f 49f
mer. 02/03 11:50 16ft 19s 10s 18 22 mph 1018.4mb 52f 50f
10:50 15.5ft 19s 9s 20 27 mph 1017.4mb 52f 49f
9:50 17.5ft 19s 10s 29 40 mph 1016.7mb 52f 46f
8:50 14ft 19s 9s 13 25 mph 1016.1mb 52f 48f
7:50 15ft 19s 9s 22 29 mph 1016mb 52f 50f
6:50 13.5ft 10s 8s 22 27 mph 1015.6mb 52f 50f
5:50 13.5ft 10s 7s 18 22 mph 1014.8mb 52f 49f